createdAt,value
2017-10-04T00:01:27.661Z,57.87
2017-10-04T00:03:55.581Z,61.17
2017-10-04T00:06:25.122Z,57.23
2017-10-04T00:08:53.926Z,60.97
2017-10-04T00:11:22.122Z,59.03
2017-10-04T00:13:50.157Z,60.90
2017-10-04T00:16:18.078Z,58.13
2017-10-04T00:18:46.750Z,59.57
2017-10-04T00:21:15.400Z,61.20
2017-10-04T00:23:44.088Z,60.13
2017-10-04T00:26:12.769Z,61.90
2017-10-04T00:28:40.810Z,59.00
2017-10-04T00:31:09.465Z,60.07
2017-10-04T00:33:37.396Z,63.00
2017-10-04T00:36:06.221Z,60.77
2017-10-04T00:38:34.125Z,59.40
2017-10-04T00:41:03.561Z,63.33
2017-10-04T00:43:31.610Z,61.30
2017-10-04T00:46:00.218Z,65.33
2017-10-04T00:48:28.168Z,62.47
2017-10-04T00:50:56.984Z,63.53
2017-10-04T00:53:25.665Z,64.30
2017-10-04T00:55:53.788Z,64.40
2017-10-04T00:58:22.540Z,63.50
2017-10-04T01:00:51.837Z,62.63
2017-10-04T01:03:19.814Z,61.90
2017-10-04T01:05:47.806Z,61.90
2017-10-04T01:08:16.171Z,64.20
2017-10-04T01:10:44.850Z,60.33
2017-10-04T01:13:12.789Z,60.77
2017-10-04T01:15:41.298Z,62.40
2017-10-04T01:18:09.241Z,64.90
2017-10-04T01:20:37.232Z,64.80
2017-10-04T01:23:05.754Z,63.83
2017-10-04T01:25:34.205Z,62.97
2017-10-04T01:28:02.313Z,60.63
2017-10-04T01:30:30.861Z,65.03
2017-10-04T01:32:58.793Z,62.40
2017-10-04T01:35:27.461Z,62.57
2017-10-04T01:37:56.069Z,61.73
2017-10-04T01:40:25.306Z,61.70
2017-10-04T01:42:54.158Z,63.27
2017-10-04T01:45:22.826Z,61.60
2017-10-04T01:47:50.743Z,61.47
2017-10-04T01:50:18.666Z,62.10
2017-10-04T01:52:46.576Z,62.37
2017-10-04T01:55:15.077Z,61.87
2017-10-04T01:57:43.766Z,63.23
2017-10-04T02:00:12.444Z,62.80
2017-10-04T02:02:40.365Z,61.30
2017-10-04T02:05:09.032Z,62.57
2017-10-04T02:07:37.360Z,63.80
2017-10-04T02:10:05.901Z,63.60
2017-10-04T02:12:34.518Z,60.70
2017-10-04T02:15:03.202Z,60.50
2017-10-04T02:17:31.862Z,59.80
2017-10-04T02:19:59.914Z,64.27
2017-10-04T02:22:27.835Z,58.37
2017-10-04T02:24:56.965Z,58.57
2017-10-04T02:27:25.617Z,61.97
2017-10-04T02:29:54.881Z,60.47
2017-10-04T02:32:23.501Z,61.00
2017-10-04T02:34:52.160Z,59.43
2017-10-04T02:37:20.069Z,59.97
2017-10-04T02:39:48.136Z,58.37
2017-10-04T02:42:16.789Z,59.03
2017-10-04T02:44:44.849Z,58.37
2017-10-04T02:47:12.791Z,60.53
2017-10-04T02:49:40.718Z,57.43
2017-10-04T02:52:09.389Z,56.03
2017-10-04T02:54:50.233Z,56.70
2017-10-04T02:57:18.733Z,58.30
2017-10-04T02:59:46.669Z,58.20
2017-10-04T03:02:14.785Z,57.13
2017-10-04T03:04:42.721Z,55.70
2017-10-04T03:07:11.472Z,56.90
2017-10-04T03:09:40.737Z,55.83
2017-10-04T03:12:09.461Z,53.77
2017-10-04T03:14:38.725Z,53.57
2017-10-04T03:17:07.449Z,54.03
2017-10-04T03:19:36.106Z,54.30
2017-10-04T03:22:04.025Z,53.03
2017-10-04T03:24:32.401Z,52.60
2017-10-04T03:27:00.322Z,50.00
2017-10-04T03:29:28.249Z,50.27
2017-10-04T03:31:56.840Z,51.27
2017-10-04T03:34:25.561Z,51.57
2017-10-04T03:36:53.482Z,49.47
2017-10-04T03:39:21.418Z,47.57
2017-10-04T03:41:50.155Z,49.40
2017-10-04T03:44:18.624Z,46.97
2017-10-04T03:46:47.470Z,45.37
2017-10-04T03:49:16.024Z,45.13
2017-10-04T03:51:43.936Z,45.13
2017-10-04T03:54:13.123Z,42.83
2017-10-04T03:56:41.057Z,43.13
2017-10-04T03:59:09.537Z,39.33
2017-10-04T04:01:37.469Z,42.17
2017-10-04T04:04:06.878Z,40.87
2017-10-04T04:06:35.538Z,39.93
2017-10-04T04:09:03.768Z,42.40
2017-10-04T04:11:31.762Z,41.00
2017-10-04T04:13:59.682Z,39.07
2017-10-04T04:16:28.338Z,38.43
2017-10-04T04:18:56.232Z,37.40
2017-10-04T04:21:24.981Z,39.20
2017-10-04T04:23:52.970Z,39.83
2017-10-04T04:26:20.937Z,37.93
2017-10-04T04:28:49.868Z,37.77
2017-10-04T04:31:17.949Z,33.37
2017-10-04T04:33:46.553Z,37.77
2017-10-04T04:36:14.504Z,33.67
2017-10-04T04:38:54.113Z,29.90
2017-10-04T04:41:23.465Z,31.47
2017-10-04T04:43:51.514Z,29.97
2017-10-04T04:46:20.433Z,29.20
2017-10-04T04:48:49.476Z,29.90
2017-10-04T04:51:17.533Z,28.10
2017-10-04T04:53:45.744Z,26.73
2017-10-04T04:56:15.078Z,26.93
2017-10-04T04:58:43.126Z,24.57
2017-10-04T05:01:11.777Z,24.43
2017-10-04T05:03:40.488Z,23.50
2017-10-04T05:06:09.307Z,23.50
2017-10-04T05:11:44.656Z,22.37
2017-10-04T05:14:13.077Z,25.30
2017-10-04T05:16:41.645Z,22.23
2017-10-04T05:19:10.129Z,23.10
2017-10-04T05:21:38.288Z,24.77
2017-10-04T05:24:06.257Z,22.07
2017-10-04T05:26:34.564Z,20.80
2017-10-04T05:29:02.676Z,22.50
2017-10-04T05:31:30.725Z,21.10
2017-10-04T05:33:58.743Z,20.37
2017-10-04T05:36:26.878Z,19.70
2017-10-04T05:38:54.910Z,19.10
2017-10-04T05:41:23.500Z,18.97
2017-10-04T05:43:51.968Z,17.77
2017-10-04T05:46:20.401Z,16.60
2017-10-04T05:48:49.157Z,17.17
2017-10-04T05:51:18.149Z,18.13
2017-10-04T05:53:46.153Z,17.17
2017-10-04T05:56:14.149Z,16.83
2017-10-04T05:58:43.625Z,15.47
2017-10-04T06:01:12.381Z,15.00
2017-10-04T06:03:40.336Z,17.90
2017-10-04T06:06:09.148Z,17.47
2017-10-04T06:08:37.146Z,16.40
2017-10-04T06:11:05.157Z,18.17
2017-10-04T06:13:34.619Z,18.03
2017-10-04T06:16:02.592Z,17.17
2017-10-04T06:18:31.081Z,16.17
2017-10-04T06:20:59.940Z,16.57
2017-10-04T06:23:27.920Z,18.03
2017-10-04T06:25:55.909Z,17.73
2017-10-04T06:28:23.988Z,17.67
2017-10-04T06:30:52.813Z,16.57
2017-10-04T06:33:22.047Z,16.57
2017-10-04T06:35:51.000Z,17.73
2017-10-04T06:38:20.444Z,15.20
2017-10-04T06:40:49.135Z,15.70
2017-10-04T06:43:17.276Z,11.83
2017-10-04T06:45:46.673Z,9.70
2017-10-04T06:48:15.481Z,8.10
2017-10-04T06:50:43.814Z,7.57
2017-10-04T06:53:11.892Z,7.20
2017-10-04T06:55:39.945Z,8.50
2017-10-04T06:58:08.677Z,7.37
2017-10-04T07:00:37.503Z,9.80
2017-10-04T07:03:06.084Z,11.50
2017-10-04T07:05:34.905Z,9.40
2017-10-04T07:08:03.629Z,9.17
2017-10-04T07:10:32.408Z,8.40
2017-10-04T07:13:01.194Z,8.33
2017-10-04T07:15:29.981Z,9.27
2017-10-04T07:17:59.114Z,9.70
2017-10-04T07:20:28.741Z,9.90
2017-10-04T07:22:56.678Z,8.00
2017-10-04T07:25:25.337Z,8.60
2017-10-04T07:27:53.388Z,8.30
2017-10-04T07:30:21.342Z,8.03
2017-10-04T07:32:49.276Z,7.53
2017-10-04T07:35:18.729Z,7.30
2017-10-04T07:37:46.681Z,8.60
2017-10-04T07:40:14.629Z,8.57
2017-10-04T07:42:42.710Z,8.43
2017-10-04T07:45:10.669Z,6.83
2017-10-04T07:47:39.182Z,7.30
2017-10-04T07:50:07.878Z,8.90
2017-10-04T07:52:36.373Z,9.57
2017-10-04T07:55:04.287Z,9.23
2017-10-04T07:57:32.353Z,9.77
2017-10-04T08:00:01.023Z,8.30
2017-10-04T08:02:29.556Z,9.60
2017-10-04T08:04:58.077Z,8.83
2017-10-04T08:07:26.557Z,8.43
2017-10-04T08:09:54.490Z,8.20
2017-10-04T08:12:23.296Z,9.07
2017-10-04T08:14:51.236Z,8.23
2017-10-04T08:17:19.781Z,7.97
2017-10-04T08:19:48.542Z,7.27
2017-10-04T08:22:17.040Z,7.20
2017-10-04T08:24:44.966Z,8.43
2017-10-04T08:27:13.078Z,7.67
2017-10-04T08:29:41.041Z,8.20
2017-10-04T08:32:09.538Z,7.10
2017-10-04T08:34:38.090Z,7.10
2017-10-04T08:37:06.473Z,8.77
2017-10-04T08:39:34.889Z,9.70
2017-10-04T08:42:02.941Z,7.50
2017-10-04T08:44:30.845Z,8.90
2017-10-04T08:47:10.437Z,8.90
2017-10-04T08:49:38.362Z,9.23
2017-10-04T08:52:07.489Z,9.83
2017-10-04T08:54:36.401Z,9.00
2017-10-04T08:57:04.336Z,10.33
2017-10-04T08:59:33.002Z,10.77
2017-10-04T09:02:01.049Z,9.47
2017-10-04T09:04:40.972Z,10.30
2017-10-04T09:07:10.417Z,11.37
2017-10-04T09:09:38.829Z,9.80
2017-10-04T09:12:08.160Z,10.27
2017-10-04T09:14:36.202Z,9.77
2017-10-04T09:17:05.337Z,9.10
2017-10-04T09:19:33.821Z,8.30
2017-10-04T09:22:01.862Z,8.20
2017-10-04T09:24:31.022Z,7.83
2017-10-04T09:26:59.577Z,7.70
2017-10-04T09:29:27.624Z,7.47
2017-10-04T09:31:55.541Z,7.43
2017-10-04T09:34:24.025Z,7.87
2017-10-04T09:36:52.713Z,8.63
2017-10-04T09:39:21.337Z,8.20
2017-10-04T09:41:50.499Z,8.63
2017-10-04T09:44:18.553Z,8.37
2017-10-04T09:46:46.490Z,9.20
2017-10-04T09:49:14.993Z,10.10
2017-10-04T09:51:43.790Z,9.60
2017-10-04T09:54:12.372Z,10.53
2017-10-04T09:56:40.442Z,10.23
2017-10-04T09:59:08.485Z,9.80
2017-10-04T10:01:37.166Z,9.83
2017-10-04T10:04:06.273Z,8.90
2017-10-04T10:06:34.993Z,8.70
2017-10-04T10:09:03.674Z,9.20
2017-10-04T10:11:32.354Z,9.13
2017-10-04T10:14:00.398Z,8.83
2017-10-04T10:16:29.062Z,10.10
2017-10-04T10:18:56.998Z,9.50
2017-10-04T10:21:25.784Z,9.93
2017-10-04T10:23:54.538Z,9.83
2017-10-04T10:26:22.866Z,10.07
2017-10-04T10:28:50.913Z,9.93
2017-10-04T10:31:18.837Z,9.17
2017-10-04T10:33:47.506Z,10.20
2017-10-04T10:36:16.069Z,10.07
2017-10-04T10:38:44.654Z,11.73
2017-10-04T10:41:13.333Z,10.67
2017-10-04T10:43:41.386Z,9.90
2017-10-04T10:46:09.301Z,10.97
2017-10-04T10:48:37.221Z,11.77
2017-10-04T10:51:05.998Z,11.17
2017-10-04T10:53:35.438Z,11.23
2017-10-04T10:56:04.016Z,11.07
2017-10-04T10:58:33.018Z,10.40
2017-10-04T11:01:01.061Z,11.53
2017-10-04T11:03:29.129Z,11.93
2017-10-04T11:05:58.466Z,11.50
2017-10-04T11:08:27.052Z,11.80
2017-10-04T11:10:55.683Z,14.67
2017-10-04T11:13:25.037Z,13.70
2017-10-04T11:15:52.967Z,14.00
2017-10-04T11:18:21.638Z,12.27
2017-10-04T11:20:50.282Z,13.73
2017-10-04T11:23:19.038Z,15.03
2017-10-04T11:25:48.306Z,15.27
2017-10-04T11:28:17.607Z,16.10
2017-10-04T11:30:45.546Z,14.90
2017-10-04T11:33:13.466Z,16.50
2017-10-04T11:35:42.846Z,16.90
2017-10-04T11:38:11.494Z,14.60
2017-10-04T11:40:39.809Z,16.67
2017-10-04T11:43:08.228Z,17.00
2017-10-04T11:45:36.886Z,16.03
2017-10-04T11:48:04.805Z,17.20
2017-10-04T11:50:33.670Z,18.00
2017-10-04T11:53:02.938Z,17.17
2017-10-04T11:55:30.852Z,18.47
2017-10-04T11:57:59.494Z,19.70
2017-10-04T12:00:27.552Z,18.90
2017-10-04T12:02:55.461Z,19.07
2017-10-04T12:05:24.260Z,19.67
2017-10-04T12:07:52.930Z,19.20
2017-10-04T12:10:21.602Z,18.87
2017-10-04T12:12:49.737Z,20.27
2017-10-04T12:15:17.672Z,18.73
2017-10-04T12:17:46.333Z,19.30
2017-10-04T12:20:14.494Z,19.23
2017-10-04T12:22:42.409Z,16.80
2017-10-04T12:25:11.082Z,15.90
2017-10-04T12:27:40.045Z,19.00
2017-10-04T12:30:08.614Z,16.23
2017-10-04T12:32:36.532Z,17.07
2017-10-04T12:35:05.346Z,17.57
2017-10-04T12:37:33.848Z,15.43
2017-10-04T12:40:01.778Z,16.80
2017-10-04T12:42:31.130Z,17.73
2017-10-04T12:44:59.067Z,17.20
2017-10-04T12:47:27.573Z,17.50
2017-10-04T12:49:55.634Z,17.60
2017-10-04T12:52:23.574Z,15.37
2017-10-04T12:54:52.266Z,16.47
2017-10-04T12:57:21.085Z,15.50
2017-10-04T12:59:49.097Z,14.43
2017-10-04T13:02:17.224Z,15.23
2017-10-04T13:04:45.356Z,14.50
2017-10-04T13:07:13.345Z,16.67
2017-10-04T13:09:42.745Z,17.57
2017-10-04T13:12:12.157Z,14.47
2017-10-04T13:14:41.309Z,15.10
2017-10-04T13:17:09.877Z,15.10
2017-10-04T13:19:38.874Z,15.33
2017-10-04T13:22:07.510Z,14.60
2017-10-04T13:27:11.829Z,18.13
2017-10-04T13:29:39.843Z,13.40
2017-10-04T13:32:07.909Z,15.60
2017-10-04T13:34:36.072Z,13.60
2017-10-04T13:37:04.836Z,13.77
2017-10-04T13:39:32.845Z,14.73
2017-10-04T13:42:01.564Z,14.13
2017-10-04T13:44:30.244Z,14.10
2017-10-04T13:46:58.661Z,14.37
2017-10-04T13:49:26.784Z,13.00
2017-10-04T13:51:54.820Z,11.67
2017-10-04T13:54:22.876Z,11.03
2017-10-04T13:56:51.045Z,10.43
2017-10-04T13:59:19.545Z,11.20
2017-10-04T14:01:48.197Z,10.87
2017-10-04T14:04:16.468Z,10.43
2017-10-04T14:06:44.472Z,9.17
2017-10-04T14:09:12.434Z,13.00
2017-10-04T14:11:41.024Z,11.07
2017-10-04T14:14:09.756Z,10.20
2017-10-04T14:16:39.018Z,10.83
2017-10-04T14:19:07.166Z,9.90
2017-10-04T14:21:35.185Z,9.83
2017-10-04T14:24:03.985Z,9.43
2017-10-04T14:26:33.538Z,9.47
2017-10-04T14:29:02.284Z,9.53
2017-10-04T14:31:31.753Z,9.80
2017-10-04T14:33:59.873Z,9.60
2017-10-04T14:36:27.973Z,9.47
2017-10-04T14:38:55.941Z,10.27
2017-10-04T14:41:24.628Z,9.40
2017-10-04T14:43:52.594Z,10.07
2017-10-04T14:46:21.217Z,9.23
2017-10-04T14:48:49.320Z,10.90
2017-10-04T14:51:18.048Z,15.17
2017-10-04T14:53:46.099Z,10.90
2017-10-04T14:56:14.733Z,10.97
2017-10-04T14:58:43.189Z,12.10
2017-10-04T15:01:11.704Z,16.27
2017-10-04T15:03:40.483Z,13.10
2017-10-04T15:06:08.597Z,12.77
2017-10-04T15:08:37.333Z,11.10
2017-10-04T15:11:05.937Z,10.40
2017-10-04T15:13:34.384Z,9.40
2017-10-04T15:16:03.897Z,9.97
2017-10-04T15:18:32.752Z,10.70
2017-10-04T15:21:01.525Z,10.70
2017-10-04T15:23:29.517Z,10.60
2017-10-04T15:25:59.053Z,9.90
2017-10-04T15:28:27.025Z,9.43
2017-10-04T15:30:55.505Z,9.13
2017-10-04T15:33:24.225Z,9.07
2017-10-04T15:35:53.053Z,9.03
2017-10-04T15:38:21.816Z,9.20
2017-10-04T15:40:49.954Z,9.40
2017-10-04T15:43:18.537Z,9.00
2017-10-04T15:45:46.989Z,8.57
2017-10-04T15:48:16.588Z,8.83
2017-10-04T15:50:45.365Z,8.30
2017-10-04T15:53:14.358Z,9.23
2017-10-04T15:55:43.257Z,9.43
2017-10-04T15:58:12.668Z,8.73
2017-10-04T16:00:42.017Z,8.77
2017-10-04T16:03:10.805Z,8.03
2017-10-04T16:05:38.871Z,8.20
2017-10-04T16:08:06.881Z,10.10
2017-10-04T16:10:34.980Z,8.90
2017-10-04T16:13:04.217Z,8.57
2017-10-04T16:15:32.199Z,8.70
2017-10-04T16:18:00.947Z,9.97
2017-10-04T16:20:30.477Z,10.33
2017-10-04T16:22:58.513Z,8.50
2017-10-04T16:25:27.397Z,8.03
2017-10-04T16:27:56.157Z,9.40
2017-10-04T16:30:24.449Z,11.67
2017-10-04T16:32:52.580Z,11.10
2017-10-04T16:35:21.040Z,11.30
2017-10-04T16:37:49.756Z,11.00
2017-10-04T16:40:17.839Z,11.60
2017-10-04T16:42:45.853Z,11.10
2017-10-04T16:45:15.244Z,10.67
2017-10-04T16:47:43.398Z,11.53
2017-10-04T16:50:11.488Z,12.50
2017-10-04T16:52:39.509Z,13.47
2017-10-04T16:55:07.702Z,12.00
2017-10-04T16:57:35.732Z,11.23
2017-10-04T17:00:05.079Z,12.37
2017-10-04T17:02:33.861Z,12.70
2017-10-04T17:05:02.444Z,12.87
2017-10-04T17:07:30.457Z,12.97
2017-10-04T17:09:59.420Z,13.47
2017-10-04T17:12:27.461Z,14.43
2017-10-04T17:14:56.100Z,13.67
2017-10-04T17:17:24.969Z,14.10
2017-10-04T17:19:53.282Z,14.27
2017-10-04T17:22:21.758Z,12.20
2017-10-04T17:24:49.854Z,15.13
2017-10-04T17:27:18.596Z,13.33
2017-10-04T17:29:47.173Z,13.60
2017-10-04T17:32:16.029Z,14.73
2017-10-04T17:34:44.705Z,13.77
2017-10-04T17:37:13.425Z,12.87
2017-10-04T17:39:41.544Z,15.60
2017-10-04T17:42:09.621Z,14.70
2017-10-04T17:44:38.273Z,14.20
2017-10-04T17:47:06.497Z,12.20
2017-10-04T17:49:35.037Z,14.53
2017-10-04T17:52:03.716Z,16.20
2017-10-04T17:54:31.785Z,14.77
2017-10-04T17:56:59.777Z,16.73
2017-10-04T17:59:28.352Z,16.30
2017-10-04T18:01:57.168Z,15.23
2017-10-04T18:04:25.922Z,14.43
2017-10-04T18:06:53.925Z,16.23
2017-10-04T18:09:22.797Z,15.37
2017-10-04T18:11:50.737Z,15.80
2017-10-04T18:14:18.712Z,15.60
2017-10-04T18:16:46.813Z,16.73
2017-10-04T18:19:15.260Z,15.80
2017-10-04T18:21:43.769Z,16.30
2017-10-04T18:24:12.590Z,17.17
2017-10-04T18:26:40.556Z,16.47
2017-10-04T18:29:08.569Z,18.93
2017-10-04T18:31:37.490Z,15.97
2017-10-04T18:34:05.981Z,17.67
2017-10-04T18:36:34.352Z,17.13
2017-10-04T18:39:03.317Z,17.07
2017-10-04T18:41:32.068Z,17.90
2017-10-04T18:44:00.066Z,16.90
2017-10-04T18:46:29.480Z,15.27
2017-10-04T18:48:58.340Z,16.70
2017-10-04T18:51:26.785Z,16.10
2017-10-04T18:53:54.923Z,17.83
2017-10-04T18:56:23.649Z,16.30
2017-10-04T18:58:51.653Z,16.80
2017-10-04T19:01:20.188Z,17.60
2017-10-04T19:03:48.166Z,17.40
2017-10-04T19:06:16.930Z,16.40
2017-10-04T19:08:46.572Z,16.20
2017-10-04T19:11:15.156Z,19.00
2017-10-04T19:13:43.191Z,17.03
2017-10-04T19:16:12.028Z,17.13
2017-10-04T19:18:39.957Z,17.97
2017-10-04T19:21:09.069Z,18.10
2017-10-04T19:23:37.159Z,16.90
2017-10-04T19:26:05.573Z,18.07
2017-10-04T19:28:33.525Z,15.10
2017-10-04T19:31:01.577Z,16.50
2017-10-04T19:33:30.236Z,16.77
2017-10-04T19:35:59.402Z,17.20
2017-10-04T19:38:27.533Z,16.73
2017-10-04T19:40:55.951Z,17.20
2017-10-04T19:43:23.900Z,15.60
2017-10-04T19:45:52.001Z,17.83
2017-10-04T19:48:20.453Z,15.80
2017-10-04T19:50:49.268Z,17.37
2017-10-04T19:53:17.320Z,17.13
2017-10-04T19:55:45.896Z,15.23
2017-10-04T19:58:13.908Z,14.87
2017-10-04T20:00:42.044Z,16.00
2017-10-04T20:03:10.496Z,13.67
2017-10-04T20:05:39.997Z,16.07
2017-10-04T20:08:09.436Z,14.27
2017-10-04T20:10:38.092Z,16.00
2017-10-04T20:13:06.940Z,16.53
2017-10-04T20:15:35.033Z,14.87
2017-10-04T20:18:02.980Z,15.40
2017-10-04T20:20:31.539Z,15.30
2017-10-04T20:23:00.185Z,16.60
2017-10-04T20:25:29.627Z,15.50
2017-10-04T20:27:57.604Z,16.97
2017-10-04T20:30:25.673Z,14.60
2017-10-04T20:32:53.621Z,15.10
2017-10-04T20:35:22.001Z,14.30
2017-10-04T20:37:50.044Z,15.10
2017-10-04T20:40:18.420Z,15.50
2017-10-04T20:42:46.365Z,14.70
2017-10-04T20:45:14.421Z,15.10
2017-10-04T20:47:42.374Z,15.67
2017-10-04T20:50:10.300Z,16.57
2017-10-04T20:52:38.489Z,14.27
2017-10-04T20:55:07.633Z,15.67
2017-10-04T20:57:36.218Z,14.33
2017-10-04T21:00:05.145Z,14.60
2017-10-04T21:02:33.088Z,16.43
2017-10-04T21:05:01.632Z,16.57
2017-10-04T21:07:31.101Z,16.57
2017-10-04T21:09:59.760Z,16.10
2017-10-04T21:12:27.692Z,20.77
2017-10-04T21:14:56.485Z,21.23
2017-10-04T21:17:25.188Z,24.50
2017-10-04T21:19:53.277Z,24.40
2017-10-04T21:22:22.073Z,24.50
2017-10-04T21:24:50.753Z,23.30
2017-10-04T21:27:18.686Z,26.50
2017-10-04T21:29:48.233Z,24.80
2017-10-04T21:32:16.952Z,23.47
2017-10-04T21:34:44.900Z,24.23
2017-10-04T21:37:12.950Z,24.60
2017-10-04T21:39:41.421Z,24.60
2017-10-04T21:42:09.820Z,19.50
2017-10-04T21:44:38.616Z,21.23
2017-10-04T21:47:06.544Z,20.33
2017-10-04T21:49:35.216Z,22.20
2017-10-04T21:52:04.060Z,21.37
2017-10-04T21:54:32.552Z,21.27
2017-10-04T21:57:00.507Z,22.20
2017-10-04T21:59:29.084Z,17.77
2017-10-04T22:01:57.024Z,20.73
2017-10-04T22:04:25.692Z,21.27
2017-10-04T22:06:54.160Z,20.33
2017-10-04T22:09:22.756Z,18.17
2017-10-04T22:11:51.512Z,18.80
2017-10-04T22:14:20.160Z,22.17
2017-10-04T22:16:48.964Z,21.70
2017-10-04T22:19:16.880Z,20.33
2017-10-04T22:21:44.928Z,20.60
2017-10-04T22:24:13.610Z,18.30
2017-10-04T22:26:41.541Z,19.50
2017-10-04T22:29:10.905Z,20.33
2017-10-04T22:31:38.840Z,18.80
2017-10-04T22:34:06.777Z,19.47
2017-10-04T22:36:35.564Z,18.70
2017-10-04T22:39:05.252Z,20.70
2017-10-04T22:41:33.190Z,18.10
2017-10-04T22:44:01.232Z,21.00
2017-10-04T22:46:29.901Z,18.90
2017-10-04T22:48:57.849Z,19.80
2017-10-04T22:51:25.892Z,18.30
2017-10-04T22:53:54.485Z,17.70
2017-10-04T22:56:23.345Z,19.77
2017-10-04T22:58:52.781Z,17.00
2017-10-04T23:01:21.436Z,19.20
2017-10-04T23:03:50.117Z,18.37
2017-10-04T23:06:18.948Z,18.10
2017-10-04T23:08:47.328Z,16.93
2017-10-04T23:11:15.903Z,17.23
2017-10-04T23:13:43.957Z,17.60
2017-10-04T23:16:11.897Z,16.60
2017-10-04T23:18:39.889Z,15.47
2017-10-04T23:21:08.697Z,17.63
2017-10-04T23:23:36.629Z,17.67
2017-10-04T23:26:05.368Z,16.63
2017-10-04T23:28:33.417Z,17.17
2017-10-04T23:31:01.992Z,16.50
2017-10-04T23:33:30.717Z,17.60
2017-10-04T23:35:58.761Z,15.97
2017-10-04T23:38:27.337Z,17.03
2017-10-04T23:40:56.021Z,16.20
2017-10-04T23:43:25.464Z,16.17
2017-10-04T23:45:54.146Z,16.40
2017-10-04T23:48:22.557Z,14.87
2017-10-04T23:50:50.597Z,14.60
2017-10-04T23:53:19.286Z,15.47
2017-10-04T23:55:47.215Z,16.27
2017-10-04T23:58:16.972Z,15.33
